Time,TemperatureF,DewpointF,PressureIn,WindDirection,WindDirectionDegrees,WindSpeedMPH,WindSpeedGustMPH,Humidity,HourlyPrecipIn,Conditions,Clouds,dailyrainin,SoftwareType,DateUTC
2013-02-20 00:01:00,16.4,7.3,29.96,West,267,5.0,5.0,67,0.00,,,0.00,Wunderground v.1.15,2013-02-20 07:01:00,
2013-02-20 00:06:00,16.5,6.8,29.96,West,276,6.0,6.0,65,0.00,,,0.00,Wunderground v.1.15,2013-02-20 07:06:00,
2013-02-20 00:11:00,16.5,6.8,29.96,WNW,291,6.0,6.0,65,0.00,,,0.00,Wunderground v.1.15,2013-02-20 07:11:00,
2013-02-20 00:16:00,16.3,6.9,29.95,NW,313,3.0,6.0,66,0.00,,,0.00,Wunderground v.1.15,2013-02-20 07:16:00,
2013-02-20 00:21:00,16.1,7.1,29.95,NW,314,2.0,4.0,67,0.00,,,0.00,Wunderground v.1.15,2013-02-20 07:21:00,
2013-02-20 00:26:00,15.7,7.0,29.95,NW,314,3.0,4.0,68,0.00,,,0.00,Wunderground v.1.15,2013-02-20 07:26:00,
2013-02-20 00:31:00,15.7,7.0,29.95,NW,314,4.0,4.0,68,0.00,,,0.00,Wunderground v.1.15,2013-02-20 07:31:00,
2013-02-20 00:36:00,16.0,7.3,29.95,NW,314,2.0,5.0,68,0.00,,,0.00,Wunderground v.1.15,2013-02-20 07:36:00,
2013-02-20 00:41:00,16.0,7.0,29.94,NW,314,3.0,3.0,67,0.00,,,0.00,Wunderground v.1.15,2013-02-20 07:41:00,
2013-02-20 00:46:00,16.0,7.0,29.93,NW,310,6.0,7.0,67,0.00,,,0.00,Wunderground v.1.15,2013-02-20 07:46:00,
2013-02-20 00:51:00,16.0,7.0,29.94,WNW,294,7.0,7.0,67,0.00,,,0.00,Wunderground v.1.15,2013-02-20 07:51:00,
2013-02-20 00:56:00,16.0,6.6,29.93,WNW,292,6.0,7.0,66,0.00,,,0.00,Wunderground v.1.15,2013-02-20 07:56:00,
2013-02-20 01:05:00,15.5,5.8,29.94,WNW,291,3.0,6.0,65,0.00,,,0.00,Wunderground v.1.15,2013-02-20 08:05:00,
2013-02-20 01:10:00,14.8,5.8,29.94,WNW,291,2.0,3.0,67,0.00,,,0.00,Wunderground v.1.15,2013-02-20 08:10:00,
2013-02-20 01:15:00,14.7,6.0,29.94,WNW,291,1.0,3.0,68,0.00,,,0.00,Wunderground v.1.15,2013-02-20 08:15:00,
2013-02-20 01:20:00,14.7,5.7,29.94,WNW,284,0.0,2.0,67,0.00,,,0.00,Wunderground v.1.15,2013-02-20 08:20:00,
2013-02-20 01:25:00,14.5,5.5,29.94,WNW,285,1.0,3.0,67,0.00,,,0.00,Wunderground v.1.15,2013-02-20 08:25:00,
2013-02-20 01:30:00,14.8,6.1,29.94,WNW,285,4.0,4.0,68,0.00,,,0.00,Wunderground v.1.15,2013-02-20 08:30:00,
2013-02-20 01:35:00,15.1,6.8,29.94,WNW,284,2.0,5.0,69,0.00,,,0.00,Wunderground v.1.15,2013-02-20 08:35:00,
2013-02-20 01:40:00,15.2,6.8,29.94,WNW,285,4.0,4.0,69,0.00,,,0.00,Wunderground v.1.15,2013-02-20 08:40:00,
2013-02-20 01:45:00,15.4,7.0,29.94,WNW,285,1.0,4.0,69,0.00,,,0.00,Wunderground v.1.15,2013-02-20 08:45:00,
2013-02-20 01:50:00,15.7,7.3,29.94,WNW,284,0.0,2.0,69,0.00,,,0.00,Wunderground v.1.15,2013-02-20 08:50:00,
2013-02-20 01:55:00,15.8,7.1,29.93,WNW,285,1.0,3.0,68,0.00,,,0.00,Wunderground v.1.15,2013-02-20 08:55:00,
2013-02-20 02:00:00,16.0,7.9,29.93,WNW,284,1.0,2.0,70,0.00,,,0.00,Wunderground v.1.15,2013-02-20 09:00:00,
2013-02-20 02:05:00,16.6,8.8,29.93,WNW,287,5.0,5.0,71,0.00,,,0.00,Wunderground v.1.15,2013-02-20 09:05:00,
2013-02-20 02:10:00,17.5,10.0,29.93,NW,316,6.0,7.0,72,0.00,,,0.00,Wunderground v.1.15,2013-02-20 09:10:00,
2013-02-20 02:15:00,18.1,10.3,29.93,WNW,303,4.0,8.0,71,0.00,,,0.00,Wunderground v.1.15,2013-02-20 09:15:00,
2013-02-20 02:20:00,18.4,9.9,29.93,WNW,303,4.0,5.0,69,0.00,,,0.00,Wunderground v.1.15,2013-02-20 09:20:00,
2013-02-20 02:25:00,18.8,9.6,29.92,WNW,294,6.0,8.0,67,0.00,,,0.00,Wunderground v.1.15,2013-02-20 09:25:00,
2013-02-20 02:30:00,19.3,9.4,29.92,WNW,290,7.0,7.0,65,0.00,,,0.00,Wunderground v.1.15,2013-02-20 09:30:00,
2013-02-20 02:35:00,19.7,9.1,29.92,WNW,283,7.0,9.0,63,0.00,,,0.00,Wunderground v.1.15,2013-02-20 09:35:00,
2013-02-20 02:40:00,19.5,9.3,29.92,WNW,303,5.0,7.0,64,0.00,,,0.00,Wunderground v.1.15,2013-02-20 09:40:00,
2013-02-20 02:45:00,19.0,9.2,29.92,NNW,342,6.0,7.0,65,0.00,,,0.00,Wunderground v.1.15,2013-02-20 09:45:00,
2013-02-20 02:50:00,18.2,8.4,29.92,NNW,347,4.0,5.0,65,0.00,,,0.00,Wunderground v.1.15,2013-02-20 09:50:00,
2013-02-20 02:55:00,17.4,8.3,29.91,NNW,327,4.0,6.0,67,0.00,,,0.00,Wunderground v.1.15,2013-02-20 09:55:00,
2013-02-20 03:00:00,17.5,8.7,29.91,NW,313,3.0,5.0,68,0.00,,,0.00,Wunderground v.1.15,2013-02-20 10:00:00,
2013-02-20 03:05:00,17.9,9.1,29.91,NW,323,5.0,5.0,68,0.00,,,0.00,Wunderground v.1.15,2013-02-20 10:05:00,
2013-02-20 03:10:00,18.5,9.4,29.90,NW,321,5.0,5.0,67,0.00,,,0.00,Wunderground v.1.15,2013-02-20 10:10:00,
2013-02-20 03:15:00,18.3,8.8,29.91,NNW,336,7.0,8.0,66,0.00,,,0.00,Wunderground v.1.15,2013-02-20 10:15:00,
2013-02-20 03:20:00,17.7,8.6,29.90,NNW,337,4.0,6.0,67,0.00,,,0.00,Wunderground v.1.15,2013-02-20 10:20:00,
2013-02-20 03:25:00,17.1,8.0,29.89,NW,315,9.0,9.0,67,0.00,,,0.00,Wunderground v.1.15,2013-02-20 10:25:00,
2013-02-20 03:30:00,17.0,8.3,29.89,NNW,329,4.0,5.0,68,0.00,,,0.00,Wunderground v.1.15,2013-02-20 10:30:00,
2013-02-20 03:35:00,17.1,8.3,29.89,NNW,329,0.0,5.0,68,0.00,,,0.00,Wunderground v.1.15,2013-02-20 10:35:00,
2013-02-20 03:40:00,17.2,8.4,29.89,NNW,329,0.0,1.0,68,0.00,,,0.00,Wunderground v.1.15,2013-02-20 10:40:00,
2013-02-20 03:45:00,16.9,7.8,29.89,NNW,340,0.0,3.0,67,0.00,,,0.00,Wunderground v.1.15,2013-02-20 10:45:00,
2013-02-20 03:50:00,16.7,7.6,29.90,NNW,340,0.0,1.0,67,0.00,,,0.00,Wunderground v.1.15,2013-02-20 10:50:00,
2013-02-20 03:55:00,16.4,7.7,29.90,NNW,340,0.0,1.0,68,0.00,,,0.00,Wunderground v.1.15,2013-02-20 10:55:00,
2013-02-20 04:00:00,16.1,7.4,29.89,NNW,340,0.0,0.0,68,0.00,,,0.00,Wunderground v.1.15,2013-02-20 11:00:00,
2013-02-20 04:05:00,16.0,7.3,29.90,NNW,340,0.0,0.0,68,0.00,,,0.00,Wunderground v.1.15,2013-02-20 11:05:00,
2013-02-20 04:10:00,16.0,7.6,29.89,NNW,340,0.0,0.0,69,0.00,,,0.00,Wunderground v.1.15,2013-02-20 11:10:00,
2013-02-20 04:15:00,15.9,7.5,29.89,NNW,340,0.0,0.0,69,0.00,,,0.00,Wunderground v.1.15,2013-02-20 11:15:00,
2013-02-20 04:20:00,15.6,7.2,29.89,NNW,340,0.0,0.0,69,0.00,,,0.00,Wunderground v.1.15,2013-02-20 11:20:00,
2013-02-20 04:25:00,16.2,7.5,29.89,NNW,336,4.0,4.0,68,0.00,,,0.00,Wunderground v.1.15,2013-02-20 11:25:00,
2013-02-20 04:30:00,16.6,7.5,29.89,NW,325,5.0,5.0,67,0.00,,,0.00,Wunderground v.1.15,2013-02-20 11:30:00,
2013-02-20 04:35:00,16.6,6.9,29.89,NW,325,1.0,5.0,65,0.00,,,0.00,Wunderground v.1.15,2013-02-20 11:35:00,
2013-02-20 04:40:00,16.6,6.9,29.89,NW,325,0.0,3.0,65,0.00,,,0.00,Wunderground v.1.15,2013-02-20 11:40:00,
2013-02-20 04:45:00,16.6,6.5,29.88,NW,325,0.0,3.0,64,0.00,,,0.00,Wunderground v.1.15,2013-02-20 11:45:00,
2013-02-20 04:50:00,16.9,6.5,29.88,NW,325,1.0,2.0,63,0.00,,,0.00,Wunderground v.1.15,2013-02-20 11:50:00,
2013-02-20 04:55:00,17.0,6.2,29.88,NW,325,0.0,2.0,62,0.00,,,0.00,Wunderground v.1.15,2013-02-20 11:55:00,
2013-02-20 05:00:00,15.4,4.3,29.88,NW,308,4.0,4.0,61,0.00,,,0.00,Wunderground v.1.15,2013-02-20 12:00:00,
2013-02-20 05:05:00,15.1,5.1,29.88,NW,308,4.0,4.0,64,0.00,,,0.00,Wunderground v.1.15,2013-02-20 12:05:00,
2013-02-20 05:10:00,15.6,5.9,29.88,NW,304,5.0,5.0,65,0.00,,,0.00,Wunderground v.1.15,2013-02-20 12:10:00,
2013-02-20 05:15:00,15.8,6.4,29.88,NW,304,2.0,6.0,66,0.00,,,0.00,Wunderground v.1.15,2013-02-20 12:15:00,
2013-02-20 05:20:00,16.2,6.8,29.88,NW,304,3.0,4.0,66,0.00,,,0.00,Wunderground v.1.15,2013-02-20 12:20:00,
2013-02-20 05:25:00,16.4,7.0,29.87,NW,304,2.0,4.0,66,0.00,,,0.00,Wunderground v.1.15,2013-02-20 12:25:00,
2013-02-20 05:30:00,15.9,7.2,29.87,NW,304,3.0,3.0,68,0.00,,,0.00,Wunderground v.1.15,2013-02-20 12:30:00,
2013-02-20 05:35:00,15.6,7.2,29.87,NW,304,4.0,5.0,69,0.00,,,0.00,Wunderground v.1.15,2013-02-20 12:35:00,
2013-02-20 05:40:00,15.7,7.3,29.87,NW,304,5.0,5.0,69,0.00,,,0.00,Wunderground v.1.15,2013-02-20 12:40:00,
2013-02-20 05:45:00,15.8,7.7,29.86,NW,308,5.0,6.0,70,0.00,,,0.00,Wunderground v.1.15,2013-02-20 12:45:00,
2013-02-20 05:50:00,15.9,8.2,29.86,NW,325,6.0,7.0,71,0.00,,,0.00,Wunderground v.1.15,2013-02-20 12:50:00,
2013-02-20 05:55:00,15.9,8.2,29.86,NNW,345,6.0,7.0,71,0.00,,,0.00,Wunderground v.1.15,2013-02-20 12:55:00,
2013-02-20 06:00:00,15.8,8.4,29.86,NNW,338,5.0,6.0,72,0.00,,,0.00,Wunderground v.1.15,2013-02-20 13:00:00,
2013-02-20 06:05:00,16.1,9.3,29.86,NW,326,5.0,7.0,74,0.00,,,0.00,Wunderground v.1.15,2013-02-20 13:05:00,
2013-02-20 06:10:00,16.4,9.6,29.86,NW,316,5.0,6.0,74,0.00,,,0.00,Wunderground v.1.15,2013-02-20 13:10:00,
2013-02-20 06:15:00,16.4,9.6,29.86,NW,316,5.0,6.0,74,0.00,,,0.00,Wunderground v.1.15,2013-02-20 13:15:00,
2013-02-20 06:20:00,16.4,9.9,29.86,NW,316,6.0,6.0,75,0.00,,,0.00,Wunderground v.1.15,2013-02-20 13:20:00,
2013-02-20 06:25:00,16.2,9.7,29.86,NW,311,4.0,7.0,75,0.00,,,0.00,Wunderground v.1.15,2013-02-20 13:25:00,
2013-02-20 06:30:00,16.2,9.7,29.85,NW,312,4.0,5.0,75,0.00,,,0.00,Wunderground v.1.15,2013-02-20 13:30:00,
2013-02-20 06:35:00,16.1,9.6,29.85,NW,312,4.0,5.0,75,0.00,,,0.00,Wunderground v.1.15,2013-02-20 13:35:00,
2013-02-20 06:40:00,16.2,9.7,29.85,NW,312,3.0,5.0,75,0.00,,,0.00,Wunderground v.1.15,2013-02-20 13:40:00,
2013-02-20 06:45:00,16.2,9.7,29.85,NW,312,3.0,5.0,75,0.00,,,0.00,Wunderground v.1.15,2013-02-20 13:45:00,
2013-02-20 06:50:00,16.1,9.6,29.85,WNW,303,1.0,4.0,75,0.00,,,0.00,Wunderground v.1.15,2013-02-20 13:50:00,
2013-02-20 06:56:00,15.7,8.9,29.84,WNW,288,4.0,5.0,74,0.00,,,0.00,Wunderground v.1.15,2013-02-20 13:56:00,
2013-02-20 07:01:00,14.7,8.2,29.84,WNW,287,2.0,3.0,75,0.00,,,0.00,Wunderground v.1.15,2013-02-20 14:01:00,
2013-02-20 07:06:00,14.5,8.3,29.84,WNW,287,1.0,3.0,76,0.00,,,0.00,Wunderground v.1.15,2013-02-20 14:06:00,
2013-02-20 07:11:00,14.5,8.6,29.84,WNW,287,0.0,2.0,77,0.00,,,0.00,Wunderground v.1.15,2013-02-20 14:11:00,
2013-02-20 07:16:00,14.0,7.8,29.85,WNW,287,1.0,3.0,76,0.00,,,0.00,Wunderground v.1.15,2013-02-20 14:16:00,
2013-02-20 07:21:00,13.5,7.6,29.85,WNW,287,2.0,2.0,77,0.00,,,0.00,Wunderground v.1.15,2013-02-20 14:21:00,
2013-02-20 07:26:00,14.0,8.4,29.85,WNW,287,0.0,2.0,78,0.00,,,0.00,Wunderground v.1.15,2013-02-20 14:26:00,
2013-02-20 07:31:00,14.6,9.3,29.85,WNW,287,0.0,1.0,79,0.00,,,0.00,Wunderground v.1.15,2013-02-20 14:31:00,
2013-02-20 07:36:00,14.9,9.6,29.85,WNW,287,0.0,1.0,79,0.00,,,0.00,Wunderground v.1.15,2013-02-20 14:36:00,
2013-02-20 07:41:00,15.1,9.8,29.84,WNW,287,0.0,0.0,79,0.00,,,0.00,Wunderground v.1.15,2013-02-20 14:41:00,
2013-02-20 07:46:00,15.3,10.0,29.84,WNW,287,2.0,2.0,79,0.00,,,0.00,Wunderground v.1.15,2013-02-20 14:46:00,
2013-02-20 07:51:00,15.5,9.9,29.83,WNW,287,0.0,1.0,78,0.00,,,0.00,Wunderground v.1.15,2013-02-20 14:51:00,
2013-02-20 07:56:00,15.6,10.0,29.84,WNW,287,2.0,3.0,78,0.00,,,0.00,Wunderground v.1.15,2013-02-20 14:56:00,
2013-02-20 08:01:00,16.1,10.7,29.83,WNW,287,3.0,3.0,79,0.00,,,0.00,Wunderground v.1.15,2013-02-20 15:01:00,
2013-02-20 08:06:00,16.3,10.6,29.84,WNW,287,2.0,3.0,78,0.00,,,0.00,Wunderground v.1.15,2013-02-20 15:06:00,
2013-02-20 08:11:00,15.7,9.8,29.83,WNW,287,2.0,2.0,77,0.00,,,0.00,Wunderground v.1.15,2013-02-20 15:11:00,
2013-02-20 08:16:00,15.4,9.5,29.83,WNW,287,3.0,3.0,77,0.00,,,0.00,Wunderground v.1.15,2013-02-20 15:16:00,
2013-02-20 08:21:00,15.7,10.1,29.83,WNW,287,4.0,5.0,78,0.00,,,0.00,Wunderground v.1.15,2013-02-20 15:21:00,
2013-02-20 08:26:00,16.0,10.3,29.82,WNW,287,3.0,5.0,78,0.00,,,0.00,Wunderground v.1.15,2013-02-20 15:26:00,
2013-02-20 08:31:00,16.4,10.7,29.82,WNW,287,3.0,4.0,78,0.00,,,0.00,Wunderground v.1.15,2013-02-20 15:31:00,
2013-02-20 08:36:00,16.7,11.0,29.82,WNW,287,3.0,4.0,78,0.00,,,0.00,Wunderground v.1.15,2013-02-20 15:36:00,
2013-02-20 08:41:00,17.0,11.6,29.83,SW,236,5.0,5.0,79,0.00,,,0.00,Wunderground v.1.15,2013-02-20 15:41:00,
2013-02-20 08:46:00,17.7,12.3,29.82,SW,236,2.0,5.0,79,0.00,,,0.00,Wunderground v.1.15,2013-02-20 15:46:00,
2013-02-20 08:51:00,18.5,13.1,29.82,SW,236,2.0,3.0,79,0.00,,,0.00,Wunderground v.1.15,2013-02-20 15:51:00,
2013-02-20 08:56:00,19.2,13.8,29.82,SW,236,1.0,3.0,79,0.00,,,0.00,Wunderground v.1.15,2013-02-20 15:56:00,
2013-02-20 09:01:00,20.2,14.7,29.82,SW,236,0.0,1.0,79,0.00,,,0.00,Wunderground v.1.15,2013-02-20 16:01:00,
2013-02-20 09:06:00,21.1,15.6,29.82,SW,236,2.0,2.0,79,0.00,,,0.00,Wunderground v.1.15,2013-02-20 16:06:00,
2013-02-20 09:11:00,22.0,16.2,29.82,SW,236,3.0,4.0,78,0.00,,,0.00,Wunderground v.1.15,2013-02-20 16:11:00,
2013-02-20 09:16:00,22.9,16.5,29.82,SW,234,3.0,5.0,76,0.00,,,0.00,Wunderground v.1.15,2013-02-20 16:16:00,
2013-02-20 09:21:00,23.8,16.7,29.82,SW,236,0.0,3.0,74,0.00,,,0.00,Wunderground v.1.15,2013-02-20 16:21:00,
2013-02-20 09:26:00,24.5,16.8,29.81,SW,236,0.0,3.0,72,0.00,,,0.00,Wunderground v.1.15,2013-02-20 16:26:00,
2013-02-20 09:31:00,25.4,17.3,29.80,SW,236,0.0,0.0,71,0.00,,,0.00,Wunderground v.1.15,2013-02-20 16:31:00,
2013-02-20 09:36:00,26.1,17.3,29.80,SW,236,0.0,0.0,69,0.00,,,0.00,Wunderground v.1.15,2013-02-20 16:36:00,
2013-02-20 09:41:00,26.4,17.6,29.80,SW,236,0.0,0.0,69,0.00,,,0.00,Wunderground v.1.15,2013-02-20 16:41:00,
2013-02-20 09:46:00,26.3,17.8,29.79,SW,236,0.0,0.0,70,0.00,,,0.00,Wunderground v.1.15,2013-02-20 16:46:00,
2013-02-20 09:51:00,26.6,18.5,29.78,SW,236,0.0,0.0,71,0.00,,,0.00,Wunderground v.1.15,2013-02-20 16:51:00,
2013-02-20 09:56:00,27.0,18.5,29.78,SW,236,0.0,2.0,70,0.00,,,0.00,Wunderground v.1.15,2013-02-20 16:56:00,
2013-02-20 10:01:00,27.4,18.9,29.77,West,276,2.0,2.0,70,0.00,,,0.00,Wunderground v.1.15,2013-02-20 17:01:00,
2013-02-20 10:06:00,27.8,18.3,29.77,West,276,0.0,2.0,67,0.00,,,0.00,Wunderground v.1.15,2013-02-20 17:06:00,
2013-02-20 10:11:00,28.0,18.5,29.76,WNW,298,0.0,2.0,67,0.00,,,0.00,Wunderground v.1.15,2013-02-20 17:11:00,
2013-02-20 10:16:00,28.3,18.0,29.76,WNW,298,1.0,3.0,65,0.00,,,0.00,Wunderground v.1.15,2013-02-20 17:16:00,
2013-02-20 10:21:00,28.6,17.6,29.76,WNW,298,0.0,2.0,63,0.00,,,0.00,Wunderground v.1.15,2013-02-20 17:21:00,
2013-02-20 10:26:00,28.8,17.4,29.76,WNW,298,2.0,3.0,62,0.00,,,0.00,Wunderground v.1.15,2013-02-20 17:26:00,
2013-02-20 10:31:00,28.7,17.3,29.76,NNW,329,3.0,3.0,62,0.00,,,0.00,Wunderground v.1.15,2013-02-20 17:31:00,
2013-02-20 10:36:00,28.7,16.9,29.75,North,355,2.0,5.0,61,0.00,,,0.00,Wunderground v.1.15,2013-02-20 17:36:00,
2013-02-20 10:41:00,28.6,16.5,29.75,North,360,3.0,4.0,60,0.00,,,0.00,Wunderground v.1.15,2013-02-20 17:41:00,
2013-02-20 10:46:00,27.7,16.7,29.75,North,360,2.0,4.0,63,0.00,,,0.00,Wunderground v.1.15,2013-02-20 17:46:00,
2013-02-20 10:51:00,27.0,16.8,29.75,North,360,2.0,2.0,65,0.00,,,0.00,Wunderground v.1.15,2013-02-20 17:51:00,
2013-02-20 10:56:00,26.7,17.9,29.74,North,360,1.0,3.0,69,0.00,,,0.00,Wunderground v.1.15,2013-02-20 17:56:00,
2013-02-20 11:01:00,26.8,18.7,29.74,North,360,3.0,4.0,71,0.00,,,0.00,Wunderground v.1.15,2013-02-20 18:01:00,
2013-02-20 11:06:00,27.3,20.1,29.73,NNE,12,3.0,4.0,74,0.00,,,0.00,Wunderground v.1.15,2013-02-20 18:06:00,
2013-02-20 11:11:00,27.3,19.8,29.73,NNE,33,3.0,5.0,73,0.00,,,0.00,Wunderground v.1.15,2013-02-20 18:11:00,
2013-02-20 11:16:00,27.2,20.3,29.73,NNE,33,3.0,6.0,75,0.00,,,0.00,Wunderground v.1.15,2013-02-20 18:16:00,
2013-02-20 11:21:00,27.2,20.6,29.72,NNE,21,3.0,5.0,76,0.00,,,0.00,Wunderground v.1.15,2013-02-20 18:21:00,
2013-02-20 11:26:00,27.2,20.9,29.72,NNE,22,2.0,5.0,77,0.00,,,0.00,Wunderground v.1.15,2013-02-20 18:26:00,
2013-02-20 11:31:00,27.2,21.2,29.72,NNE,22,2.0,2.0,78,0.00,,,0.00,Wunderground v.1.15,2013-02-20 18:31:00,
2013-02-20 11:36:00,27.2,21.2,29.72,NNE,22,0.0,2.0,78,0.00,,,0.00,Wunderground v.1.15,2013-02-20 18:36:00,
2013-02-20 11:41:00,26.9,21.0,29.71,NNE,22,2.0,3.0,78,0.00,,,0.00,Wunderground v.1.15,2013-02-20 18:41:00,
2013-02-20 11:46:00,26.7,21.1,29.70,NNE,22,0.0,3.0,79,0.00,,,0.00,Wunderground v.1.15,2013-02-20 18:46:00,
2013-02-20 11:51:00,26.8,21.5,29.70,NNE,22,0.0,1.0,80,0.00,,,0.00,Wunderground v.1.15,2013-02-20 18:51:00,
2013-02-20 11:56:00,27.1,21.7,29.69,NNE,22,0.0,1.0,80,0.00,,,0.00,Wunderground v.1.15,2013-02-20 18:56:00,
2013-02-20 12:01:00,26.2,20.9,29.68,NNE,22,0.0,0.0,80,0.00,,,0.00,Wunderground v.1.15,2013-02-20 19:01:00,
2013-02-20 12:06:00,26.3,21.3,29.68,NNE,22,0.0,0.0,81,0.00,,,0.00,Wunderground v.1.15,2013-02-20 19:06:00,
2013-02-20 12:11:00,26.9,22.1,29.68,NNE,22,0.0,0.0,82,0.00,,,0.00,Wunderground v.1.15,2013-02-20 19:11:00,
2013-02-20 12:16:00,28.0,23.2,29.68,NNE,22,0.0,0.0,82,0.00,,,0.00,Wunderground v.1.15,2013-02-20 19:16:00,
2013-02-20 12:21:00,28.8,24.0,29.67,NNE,22,0.0,0.0,82,0.00,,,0.00,Wunderground v.1.15,2013-02-20 19:21:00,
2013-02-20 12:26:00,29.4,24.6,29.67,NNE,22,0.0,0.0,82,0.00,,,0.00,Wunderground v.1.15,2013-02-20 19:26:00,
2013-02-20 12:31:00,29.0,23.9,29.66,NNE,22,2.0,3.0,81,0.00,,,0.00,Wunderground v.1.15,2013-02-20 19:31:00,
2013-02-20 12:36:00,29.2,24.1,29.65,NNE,22,0.0,3.0,81,0.00,,,0.00,Wunderground v.1.15,2013-02-20 19:36:00,
2013-02-20 12:41:00,29.3,24.2,29.65,NNE,22,1.0,2.0,81,0.00,,,0.01,Wunderground v.1.15,2013-02-20 19:41:00,
2013-02-20 12:46:00,29.7,24.9,29.65,NNE,22,0.0,2.0,82,0.00,,,0.01,Wunderground v.1.15,2013-02-20 19:46:00,
2013-02-20 12:51:00,29.3,24.2,29.64,NNE,22,0.0,1.0,81,0.06,,,0.02,Wunderground v.1.15,2013-02-20 19:51:00,
2013-02-20 12:56:00,29.4,24.6,29.64,NNE,22,1.0,3.0,82,0.06,,,0.02,Wunderground v.1.15,2013-02-20 19:56:00,
2013-02-20 13:01:00,29.7,25.2,29.64,NNE,22,0.0,1.0,83,0.09,,,0.03,Wunderground v.1.15,2013-02-20 20:01:00,
2013-02-20 13:06:00,30.0,25.5,29.63,NNE,22,0.0,1.0,83,0.08,,,0.04,Wunderground v.1.15,2013-02-20 20:06:00,
2013-02-20 13:11:00,29.9,25.4,29.63,NNE,22,0.0,1.0,83,0.08,,,0.04,Wunderground v.1.15,2013-02-20 20:11:00,
2013-02-20 13:16:00,29.8,25.0,29.63,NNE,22,0.0,1.0,82,0.05,,,0.04,Wunderground v.1.15,2013-02-20 20:16:00,
2013-02-20 13:21:00,29.6,24.8,29.62,NNE,22,0.0,1.0,82,0.04,,,0.04,Wunderground v.1.15,2013-02-20 20:21:00,
2013-02-20 13:26:00,29.4,24.6,29.61,NNE,22,0.0,1.0,82,0.00,,,0.05,Wunderground v.1.15,2013-02-20 20:26:00,
2013-02-20 13:31:00,29.3,24.5,29.61,NNE,22,0.0,0.0,82,0.00,,,0.05,Wunderground v.1.15,2013-02-20 20:31:00,
2013-02-20 13:36:00,29.2,24.7,29.61,NNE,22,0.0,0.0,83,0.00,,,0.05,Wunderground v.1.15,2013-02-20 20:36:00,
2013-02-20 13:41:00,29.2,24.7,29.61,NNE,22,0.0,0.0,83,0.05,,,0.06,Wunderground v.1.15,2013-02-20 20:41:00,
2013-02-20 13:46:00,29.4,24.9,29.61,NNE,22,0.0,0.0,83,0.08,,,0.07,Wunderground v.1.15,2013-02-20 20:46:00,
2013-02-20 13:51:00,29.6,25.1,29.60,NNE,22,0.0,0.0,83,0.08,,,0.07,Wunderground v.1.15,2013-02-20 20:51:00,
2013-02-20 13:56:00,29.7,25.5,29.61,SE,128,6.0,6.0,84,0.06,,,0.08,Wunderground v.1.15,2013-02-20 20:56:00,
2013-02-20 14:01:00,28.4,23.9,29.61,SE,128,8.0,10.0,83,0.06,,,0.08,Wunderground v.1.15,2013-02-20 21:01:00,
2013-02-20 14:06:00,27.7,23.5,29.61,SE,128,6.0,10.0,84,0.05,,,0.08,Wunderground v.1.15,2013-02-20 21:06:00,
2013-02-20 14:11:00,27.5,23.6,29.61,SE,128,9.0,10.0,85,0.04,,,0.08,Wunderground v.1.15,2013-02-20 21:11:00,
2013-02-20 14:16:00,27.4,23.8,29.61,SE,128,7.0,10.0,86,0.00,,,0.08,Wunderground v.1.15,2013-02-20 21:16:00,
2013-02-20 14:21:00,27.2,23.6,29.61,SE,128,6.0,8.0,86,0.00,,,0.08,Wunderground v.1.15,2013-02-20 21:21:00,
2013-02-20 14:26:00,27.4,24.0,29.61,SE,128,3.0,8.0,87,0.00,,,0.08,Wunderground v.1.15,2013-02-20 21:26:00,
2013-02-20 14:31:00,27.9,24.5,29.61,SE,128,3.0,4.0,87,0.00,,,0.08,Wunderground v.1.15,2013-02-20 21:31:00,
2013-02-20 14:36:00,28.5,25.4,29.60,SE,128,5.0,6.0,88,0.00,,,0.09,Wunderground v.1.15,2013-02-20 21:36:00,
2013-02-20 14:41:00,28.9,25.8,29.60,SE,128,3.0,6.0,88,0.00,,,0.09,Wunderground v.1.15,2013-02-20 21:41:00,
2013-02-20 14:46:00,29.4,26.3,29.60,SE,128,3.0,6.0,88,0.00,,,0.09,Wunderground v.1.15,2013-02-20 21:46:00,
2013-02-20 14:51:00,29.6,26.5,29.60,SE,128,4.0,5.0,88,0.00,,,0.09,Wunderground v.1.15,2013-02-20 21:51:00,
2013-02-20 14:56:00,29.8,26.7,29.60,SE,128,1.0,5.0,88,0.00,,,0.09,Wunderground v.1.15,2013-02-20 21:56:00,
2013-02-20 15:01:00,30.3,27.2,29.61,SE,128,0.0,2.0,88,0.00,,,0.10,Wunderground v.1.15,2013-02-20 22:01:00,
2013-02-20 15:06:00,30.8,27.7,29.60,SE,128,0.0,2.0,88,0.00,,,0.10,Wunderground v.1.15,2013-02-20 22:06:00,
2013-02-20 15:11:00,31.0,27.9,29.60,SE,128,0.0,1.0,88,0.00,,,0.10,Wunderground v.1.15,2013-02-20 22:11:00,
2013-02-20 15:16:00,30.9,27.8,29.60,SE,128,0.0,1.0,88,0.00,,,0.10,Wunderground v.1.15,2013-02-20 22:16:00,
2013-02-20 15:21:00,30.7,27.3,29.60,SE,127,0.0,1.0,87,0.00,,,0.10,Wunderground v.1.15,2013-02-20 22:21:00,
2013-02-20 15:26:00,30.0,26.3,29.60,SE,127,0.0,1.0,86,0.00,,,0.10,Wunderground v.1.15,2013-02-20 22:26:00,
2013-02-20 15:31:00,29.4,25.7,29.60,SE,128,1.0,1.0,86,0.00,,,0.10,Wunderground v.1.15,2013-02-20 22:31:00,
2013-02-20 15:36:00,29.0,25.1,29.60,SE,129,0.0,3.0,85,0.00,,,0.10,Wunderground v.1.15,2013-02-20 22:36:00,
2013-02-20 15:41:00,28.7,24.8,29.60,SE,130,0.0,0.0,85,0.00,,,0.10,Wunderground v.1.15,2013-02-20 22:41:00,
2013-02-20 15:47:00,28.7,24.8,29.60,SE,139,4.0,5.0,85,0.00,,,0.10,Wunderground v.1.15,2013-02-20 22:47:00,
2013-02-20 15:52:00,28.7,24.8,29.60,SE,145,0.0,5.0,85,0.00,,,0.10,Wunderground v.1.15,2013-02-20 22:52:00,
2013-02-20 15:57:00,28.5,24.3,29.60,SE,146,2.0,5.0,84,0.00,,,0.11,Wunderground v.1.15,2013-02-20 22:57:00,
2013-02-20 16:02:00,28.5,24.3,29.60,SE,145,0.0,1.0,84,0.00,,,0.11,Wunderground v.1.15,2013-02-20 23:02:00,
2013-02-20 16:07:00,28.3,24.1,29.61,SE,146,2.0,2.0,84,0.00,,,0.11,Wunderground v.1.15,2013-02-20 23:07:00,
2013-02-20 16:12:00,27.5,23.0,29.60,SE,144,2.0,4.0,83,0.00,,,0.11,Wunderground v.1.15,2013-02-20 23:12:00,
2013-02-20 16:17:00,27.2,23.0,29.60,SE,144,2.0,5.0,84,0.00,,,0.11,Wunderground v.1.15,2013-02-20 23:17:00,
2013-02-20 16:22:00,26.7,22.5,29.60,SE,144,2.0,3.0,84,0.00,,,0.11,Wunderground v.1.15,2013-02-20 23:22:00,
2013-02-20 16:27:00,26.0,21.8,29.60,SE,144,2.0,4.0,84,0.00,,,0.11,Wunderground v.1.15,2013-02-20 23:27:00,
2013-02-20 16:32:00,25.7,21.5,29.61,SE,144,2.0,3.0,84,0.00,,,0.11,Wunderground v.1.15,2013-02-20 23:32:00,
2013-02-20 16:37:00,25.7,21.5,29.61,SE,144,0.0,3.0,84,0.00,,,0.11,Wunderground v.1.15,2013-02-20 23:37:00,
2013-02-20 16:42:00,25.6,21.7,29.61,SE,144,0.0,1.0,85,0.00,,,0.11,Wunderground v.1.15,2013-02-20 23:42:00,
2013-02-20 16:47:00,25.8,21.9,29.61,SE,144,0.0,1.0,85,0.00,,,0.11,Wunderground v.1.15,2013-02-20 23:47:00,
2013-02-20 16:52:00,25.7,21.8,29.61,SE,144,0.0,0.0,85,0.00,,,0.11,Wunderground v.1.15,2013-02-20 23:52:00,
2013-02-20 16:57:00,25.6,21.7,29.61,SE,144,0.0,2.0,85,0.00,,,0.11,Wunderground v.1.15,2013-02-20 23:57:00,
2013-02-20 17:02:00,25.2,21.3,29.61,SE,144,0.0,1.0,85,0.00,,,0.11,Wunderground v.1.15,2013-02-21 00:02:00,
2013-02-20 17:07:00,25.2,21.3,29.61,SE,144,0.0,1.0,85,0.00,,,0.11,Wunderground v.1.15,2013-02-21 00:07:00,
2013-02-20 17:12:00,25.5,21.9,29.62,SE,144,0.0,0.0,86,0.00,,,0.11,Wunderground v.1.15,2013-02-21 00:12:00,
2013-02-20 17:17:00,25.7,22.1,29.63,SE,144,0.0,0.0,86,0.00,,,0.11,Wunderground v.1.15,2013-02-21 00:17:00,
2013-02-20 17:22:00,26.0,22.4,29.62,SE,144,0.0,0.0,86,0.00,,,0.11,Wunderground v.1.15,2013-02-21 00:22:00,
2013-02-20 17:27:00,26.1,22.8,29.63,SE,144,3.0,3.0,87,0.00,,,0.11,Wunderground v.1.15,2013-02-21 00:27:00,
2013-02-20 17:32:00,25.4,21.8,29.63,SE,144,2.0,3.0,86,0.00,,,0.11,Wunderground v.1.15,2013-02-21 00:32:00,
2013-02-20 17:37:00,24.9,21.3,29.63,SE,144,1.0,3.0,86,0.00,,,0.11,Wunderground v.1.15,2013-02-21 00:37:00,
2013-02-20 17:42:00,24.7,21.1,29.64,SE,144,0.0,2.0,86,0.00,,,0.11,Wunderground v.1.15,2013-02-21 00:42:00,
2013-02-20 17:47:00,24.9,21.6,29.64,SE,144,0.0,2.0,87,0.00,,,0.11,Wunderground v.1.15,2013-02-21 00:47:00,
2013-02-20 17:52:00,25.2,21.9,29.64,SE,144,0.0,0.0,87,0.00,,,0.11,Wunderground v.1.15,2013-02-21 00:52:00,
2013-02-20 17:57:00,25.2,21.9,29.64,SE,144,0.0,0.0,87,0.00,,,0.11,Wunderground v.1.15,2013-02-21 00:57:00,
2013-02-20 18:02:00,25.2,21.9,29.64,SE,144,0.0,0.0,87,0.00,,,0.11,Wunderground v.1.15,2013-02-21 01:02:00,
2013-02-20 18:07:00,25.1,22.0,29.65,SE,144,0.0,0.0,88,0.00,,,0.11,Wunderground v.1.15,2013-02-21 01:07:00,
2013-02-20 18:12:00,24.6,21.3,29.65,SE,144,3.0,4.0,87,0.00,,,0.11,Wunderground v.1.15,2013-02-21 01:12:00,
2013-02-20 18:17:00,24.0,20.7,29.65,SE,144,2.0,4.0,87,0.00,,,0.11,Wunderground v.1.15,2013-02-21 01:17:00,
2013-02-20 18:22:00,23.6,20.3,29.66,SE,144,4.0,4.0,87,0.00,,,0.11,Wunderground v.1.15,2013-02-21 01:22:00,
2013-02-20 18:27:00,23.0,19.7,29.66,SE,144,4.0,7.0,87,0.00,,,0.11,Wunderground v.1.15,2013-02-21 01:27:00,
2013-02-20 18:32:00,22.3,19.0,29.67,SE,144,5.0,8.0,87,0.00,,,0.11,Wunderground v.1.15,2013-02-21 01:32:00,
2013-02-20 18:37:00,22.3,19.0,29.67,SE,144,0.0,8.0,87,0.00,,,0.11,Wunderground v.1.15,2013-02-21 01:37:00,
2013-02-20 18:42:00,23.4,20.4,29.66,SE,144,2.0,8.0,88,0.00,,,0.11,Wunderground v.1.15,2013-02-21 01:42:00,
2013-02-20 18:47:00,24.2,21.2,29.66,SE,144,1.0,8.0,88,0.00,,,0.11,Wunderground v.1.15,2013-02-21 01:47:00,
2013-02-20 18:52:00,24.6,21.6,29.67,SE,144,0.0,6.0,88,0.00,,,0.11,Wunderground v.1.15,2013-02-21 01:52:00,
2013-02-20 18:57:00,25.0,21.9,29.66,SE,144,3.0,6.0,88,0.00,,,0.11,Wunderground v.1.15,2013-02-21 01:57:00,
2013-02-20 19:02:00,24.6,21.3,29.67,SE,144,2.0,5.0,87,0.00,,,0.11,Wunderground v.1.15,2013-02-21 02:02:00,
2013-02-20 19:07:00,24.2,20.9,29.67,SE,144,4.0,5.0,87,0.00,,,0.11,Wunderground v.1.15,2013-02-21 02:07:00,
2013-02-20 19:12:00,23.6,20.3,29.67,SE,144,3.0,4.0,87,0.00,,,0.11,Wunderground v.1.15,2013-02-21 02:12:00,
2013-02-20 19:17:00,23.0,19.4,29.67,SE,144,4.0,5.0,86,0.00,,,0.11,Wunderground v.1.15,2013-02-21 02:17:00,
2013-02-20 19:22:00,22.3,18.7,29.67,SE,144,5.0,5.0,86,0.00,,,0.11,Wunderground v.1.15,2013-02-21 02:22:00,
2013-02-20 19:27:00,21.4,17.9,29.67,SE,144,5.0,6.0,86,0.00,,,0.11,Wunderground v.1.15,2013-02-21 02:27:00,
2013-02-20 19:32:00,20.7,17.2,29.67,SE,144,3.0,5.0,86,0.00,,,0.11,Wunderground v.1.15,2013-02-21 02:32:00,
2013-02-20 19:37:00,20.2,16.7,29.68,SE,144,5.0,6.0,86,0.00,,,0.11,Wunderground v.1.15,2013-02-21 02:37:00,
2013-02-20 19:42:00,20.0,16.5,29.67,SE,144,4.0,5.0,86,0.00,,,0.11,Wunderground v.1.15,2013-02-21 02:42:00,
2013-02-20 19:47:00,20.0,16.8,29.67,SE,144,4.0,6.0,87,0.00,,,0.11,Wunderground v.1.15,2013-02-21 02:47:00,
2013-02-20 19:52:00,20.0,16.8,29.67,SE,144,6.0,7.0,87,0.00,,,0.11,Wunderground v.1.15,2013-02-21 02:52:00,
2013-02-20 19:57:00,20.6,17.3,29.67,SE,144,3.0,7.0,87,0.00,,,0.11,Wunderground v.1.15,2013-02-21 02:57:00,
2013-02-20 20:02:00,20.8,17.8,29.68,SE,144,2.0,5.0,88,0.00,,,0.11,Wunderground v.1.15,2013-02-21 03:02:00,
2013-02-20 20:07:00,21.1,18.1,29.68,SE,144,2.0,5.0,88,0.00,,,0.11,Wunderground v.1.15,2013-02-21 03:07:00,
2013-02-20 20:12:00,21.3,18.3,29.68,SE,144,3.0,4.0,88,0.00,,,0.11,Wunderground v.1.15,2013-02-21 03:12:00,
2013-02-20 20:17:00,21.2,18.2,29.68,SE,144,4.0,5.0,88,0.00,,,0.11,Wunderground v.1.15,2013-02-21 03:17:00,
2013-02-20 20:22:00,20.7,17.7,29.69,SE,144,3.0,5.0,88,0.00,,,0.11,Wunderground v.1.15,2013-02-21 03:22:00,
2013-02-20 20:27:00,20.2,17.2,29.69,SE,144,4.0,5.0,88,0.00,,,0.11,Wunderground v.1.15,2013-02-21 03:27:00,
2013-02-20 20:32:00,20.3,17.3,29.69,SE,144,2.0,4.0,88,0.00,,,0.11,Wunderground v.1.15,2013-02-21 03:32:00,
2013-02-20 20:37:00,21.4,18.4,29.69,SE,144,4.0,6.0,88,0.00,,,0.11,Wunderground v.1.15,2013-02-21 03:37:00,
2013-02-20 20:42:00,22.0,19.3,29.70,SE,144,5.0,6.0,89,0.00,,,0.11,Wunderground v.1.15,2013-02-21 03:42:00,
2013-02-20 20:47:00,21.6,18.6,29.70,SE,144,5.0,6.0,88,0.00,,,0.11,Wunderground v.1.15,2013-02-21 03:47:00,
2013-02-20 20:52:00,20.9,17.9,29.70,SE,144,6.0,7.0,88,0.00,,,0.11,Wunderground v.1.15,2013-02-21 03:52:00,
2013-02-20 20:57:00,20.6,17.3,29.70,SE,144,6.0,7.0,87,0.00,,,0.11,Wunderground v.1.15,2013-02-21 03:57:00,
2013-02-20 21:02:00,21.2,17.9,29.69,SE,144,6.0,7.0,87,0.00,,,0.11,Wunderground v.1.15,2013-02-21 04:02:00,
2013-02-20 21:07:00,21.3,17.8,29.70,SE,144,4.0,7.0,86,0.00,,,0.11,Wunderground v.1.15,2013-02-21 04:07:00,
2013-02-20 21:12:00,19.5,14.9,29.70,SE,144,3.0,5.0,82,0.00,,,0.11,Wunderground v.1.15,2013-02-21 04:12:00,
2013-02-20 21:17:00,16.9,11.8,29.70,SE,144,5.0,7.0,80,0.00,,,0.11,Wunderground v.1.15,2013-02-21 04:17:00,
2013-02-20 21:22:00,14.8,9.7,29.71,SE,144,3.0,5.0,80,0.00,,,0.11,Wunderground v.1.15,2013-02-21 04:22:00,
2013-02-20 21:27:00,16.0,11.7,29.71,SE,144,2.0,5.0,83,0.00,,,0.11,Wunderground v.1.15,2013-02-21 04:27:00,
2013-02-20 21:32:00,15.9,11.9,29.71,SE,144,0.0,3.0,84,0.00,,,0.11,Wunderground v.1.15,2013-02-21 04:32:00,
2013-02-20 21:37:00,14.5,10.5,29.71,SE,144,1.0,3.0,84,0.00,,,0.11,Wunderground v.1.15,2013-02-21 04:37:00,
2013-02-20 21:42:00,15.7,12.0,29.71,SE,144,0.0,2.0,85,0.00,,,0.11,Wunderground v.1.15,2013-02-21 04:42:00,
2013-02-20 21:47:00,16.6,13.1,29.71,SE,144,0.0,2.0,86,0.00,,,0.11,Wunderground v.1.15,2013-02-21 04:47:00,
2013-02-20 21:52:00,17.6,14.4,29.71,SE,144,0.0,1.0,87,0.00,,,0.11,Wunderground v.1.15,2013-02-21 04:52:00,
2013-02-20 21:57:00,17.2,14.0,29.71,SE,144,0.0,1.0,87,0.00,,,0.11,Wunderground v.1.15,2013-02-21 04:57:00,
2013-02-20 22:00:00,16.8,13.6,29.71,SE,144,0.0,0.0,87,0.00,,,0.11,Wunderground v.1.15,2013-02-21 05:00:00,
2013-02-20 22:05:00,15.9,12.7,29.71,SE,144,3.0,4.0,87,0.00,,,0.11,Wunderground v.1.15,2013-02-21 05:05:00,
2013-02-20 22:10:00,14.4,11.0,29.71,SE,144,3.0,4.0,86,0.00,,,0.11,Wunderground v.1.15,2013-02-21 05:10:00,
2013-02-20 22:15:00,14.1,10.9,29.71,SE,144,0.0,4.0,87,0.00,,,0.11,Wunderground v.1.15,2013-02-21 05:15:00,
2013-02-20 22:20:00,13.9,10.7,29.71,SE,144,0.0,1.0,87,0.00,,,0.11,Wunderground v.1.15,2013-02-21 05:20:00,
2013-02-20 22:25:00,13.7,10.5,29.71,SE,144,0.0,1.0,87,0.00,,,0.11,Wunderground v.1.15,2013-02-21 05:25:00,
2013-02-20 22:30:00,14.0,10.8,29.71,SE,144,0.0,0.0,87,0.00,,,0.11,Wunderground v.1.15,2013-02-21 05:30:00,
2013-02-20 22:35:00,14.4,11.2,29.71,SE,144,0.0,0.0,87,0.00,,,0.11,Wunderground v.1.15,2013-02-21 05:35:00,
2013-02-20 22:40:00,14.9,12.0,29.71,SE,144,0.0,0.0,88,0.00,,,0.11,Wunderground v.1.15,2013-02-21 05:40:00,
2013-02-20 22:45:00,15.4,12.5,29.71,SE,144,0.0,0.0,88,0.00,,,0.11,Wunderground v.1.15,2013-02-21 05:45:00,
2013-02-20 22:50:00,16.1,13.2,29.72,SE,144,3.0,4.0,88,0.00,,,0.11,Wunderground v.1.15,2013-02-21 05:50:00,
2013-02-20 22:55:00,16.6,13.7,29.71,SE,144,5.0,5.0,88,0.00,,,0.11,Wunderground v.1.15,2013-02-21 05:55:00,
2013-02-20 23:00:00,15.5,12.3,29.71,SE,144,6.0,6.0,87,0.00,,,0.11,Wunderground v.1.15,2013-02-21 06:00:00,
2013-02-20 23:05:00,13.0,9.3,29.71,SE,144,2.0,6.0,85,0.00,,,0.11,Wunderground v.1.15,2013-02-21 06:05:00,
2013-02-20 23:10:00,13.0,9.3,29.71,SE,144,3.0,3.0,85,0.00,,,0.11,Wunderground v.1.15,2013-02-21 06:10:00,
2013-02-20 23:15:00,13.5,9.8,29.71,SE,144,0.0,3.0,85,0.00,,,0.11,Wunderground v.1.15,2013-02-21 06:15:00,
2013-02-20 23:20:00,14.1,10.4,29.71,SE,144,0.0,0.0,85,0.00,,,0.11,Wunderground v.1.15,2013-02-21 06:20:00,
2013-02-20 23:25:00,14.6,11.2,29.72,SE,144,0.0,1.0,86,0.00,,,0.11,Wunderground v.1.15,2013-02-21 06:25:00,
2013-02-20 23:30:00,13.1,9.4,29.71,SE,144,0.0,0.0,85,0.00,,,0.11,Wunderground v.1.15,2013-02-21 06:30:00,
2013-02-20 23:35:00,12.5,8.6,29.71,SE,144,1.0,5.0,84,0.00,,,0.11,Wunderground v.1.15,2013-02-21 06:35:00,
2013-02-20 23:40:00,10.9,6.8,29.71,SE,144,0.0,2.0,83,0.00,,,0.11,Wunderground v.1.15,2013-02-21 06:40:00,
2013-02-20 23:45:00,9.9,5.8,29.71,SE,144,0.0,2.0,83,0.00,,,0.11,Wunderground v.1.15,2013-02-21 06:45:00,
2013-02-20 23:50:00,7.9,3.8,29.71,SE,144,1.0,2.0,83,0.00,,,0.11,Wunderground v.1.15,2013-02-21 06:50:00,
2013-02-20 23:55:00,6.3,2.2,29.71,SE,144,0.0,4.0,83,0.00,,,0.11,Wunderground v.1.15,2013-02-21 06:55:00,